createdAt,value
2019-06-08T00:02:27.804Z,90.05
2019-06-08T00:04:59.199Z,88.73
2019-06-08T00:07:30.417Z,89.01
2019-06-08T00:10:01.564Z,89.92
2019-06-08T00:12:32.773Z,89.29
2019-06-08T00:15:05.632Z,89.18
2019-06-08T00:17:38.949Z,90.60
2019-06-08T00:20:09.935Z,90.45
2019-06-08T00:22:41.155Z,91.01
2019-06-08T00:25:13.793Z,90.64
2019-06-08T00:27:44.935Z,91.60
2019-06-08T00:30:16.128Z,91.42
2019-06-08T00:32:47.329Z,91.47
2019-06-08T00:35:18.683Z,92.55
2019-06-08T00:37:49.893Z,92.24
2019-06-08T00:40:21.134Z,92.27
2019-06-08T00:42:52.325Z,91.99
2019-06-08T00:45:23.635Z,92.29
2019-06-08T00:47:54.957Z,92.64
2019-06-08T00:50:27.011Z,92.84
2019-06-08T00:52:58.228Z,92.58
2019-06-08T00:55:29.916Z,92.68
2019-06-08T00:58:01.200Z,93.20
2019-06-08T01:00:32.383Z,93.17
2019-06-08T01:03:03.666Z,92.93
2019-06-08T01:05:34.834Z,93.10
2019-06-08T01:08:06.127Z,93.25
2019-06-08T01:10:37.329Z,93.29
2019-06-08T01:13:08.958Z,93.57
2019-06-08T01:15:40.241Z,93.63
2019-06-08T01:18:11.553Z,93.76
2019-06-08T01:20:42.844Z,93.53
2019-06-08T01:23:14.174Z,93.21
2019-06-08T01:25:45.351Z,92.45
2019-06-08T01:28:16.670Z,92.40
2019-06-08T01:30:47.968Z,93.53
2019-06-08T01:33:20.406Z,93.02
2019-06-08T01:35:51.670Z,92.78
2019-06-08T01:38:23.027Z,92.69
2019-06-08T01:40:54.149Z,92.36
2019-06-08T01:43:25.838Z,93.04
2019-06-08T01:45:57.134Z,92.33
2019-06-08T01:48:28.442Z,92.59
2019-06-08T01:51:00.703Z,92.85
2019-06-08T01:53:33.014Z,92.67
2019-06-08T01:56:04.400Z,92.46
2019-06-08T01:58:35.903Z,92.53
2019-06-08T02:01:07.563Z,92.76
2019-06-08T02:03:38.978Z,92.31
2019-06-08T02:06:10.135Z,92.29
2019-06-08T02:08:41.460Z,92.62
2019-06-08T02:11:12.617Z,92.52
2019-06-08T02:13:43.879Z,92.56
2019-06-08T02:16:15.174Z,92.04
2019-06-08T02:18:50.880Z,91.59
2019-06-08T02:21:19.366Z,91.57
2019-06-08T02:23:50.586Z,91.34
2019-06-08T02:26:21.751Z,91.66
2019-06-08T02:28:52.951Z,92.22
2019-06-08T02:31:24.157Z,92.12
2019-06-08T02:33:55.495Z,91.97
2019-06-08T02:36:28.659Z,92.29
2019-06-08T02:39:00.527Z,91.82
2019-06-08T02:41:33.063Z,92.44
2019-06-08T02:44:05.221Z,92.87
2019-06-08T02:46:38.215Z,92.70
2019-06-08T02:49:09.428Z,92.24
2019-06-08T02:51:41.719Z,91.92
2019-06-08T02:54:13.447Z,91.87
2019-06-08T02:56:46.054Z,92.39
2019-06-08T02:59:20.291Z,92.23
2019-06-08T03:01:52.980Z,92.12
2019-06-08T03:04:26.287Z,92.04
2019-06-08T03:06:59.515Z,91.67
2019-06-08T03:09:34.632Z,90.77
2019-06-08T03:12:05.677Z,90.30
2019-06-08T03:14:39.644Z,83.03
2019-06-08T03:17:11.325Z,81.05
2019-06-08T03:19:42.885Z,80.59
2019-06-08T03:22:14.072Z,77.98
2019-06-08T03:24:45.297Z,76.81
2019-06-08T03:27:16.509Z,76.30
2019-06-08T03:29:47.717Z,74.82
2019-06-08T03:32:18.817Z,75.28
2019-06-08T03:34:55.722Z,74.48
2019-06-08T03:37:22.894Z,74.38
2019-06-08T03:39:54.125Z,70.04
2019-06-08T03:42:25.272Z,71.31
2019-06-08T03:44:56.422Z,73.93
2019-06-08T03:47:27.594Z,73.56
2019-06-08T03:49:58.796Z,71.88
2019-06-08T03:52:30.945Z,69.16
2019-06-08T03:55:02.096Z,67.44
2019-06-08T03:57:33.247Z,66.72
2019-06-08T04:00:13.338Z,66.02
2019-06-08T04:02:42.703Z,65.53
2019-06-08T04:05:14.905Z,64.57
2019-06-08T04:07:46.571Z,66.48
2019-06-08T04:10:17.853Z,63.75
2019-06-08T04:12:50.162Z,64.64
2019-06-08T04:15:21.558Z,67.22
2019-06-08T04:17:52.712Z,64.08
2019-06-08T04:20:23.935Z,61.80
2019-06-08T04:22:55.314Z,62.90
2019-06-08T04:25:26.553Z,63.60
2019-06-08T04:27:57.864Z,63.00
2019-06-08T04:30:29.094Z,62.13
2019-06-08T04:33:00.267Z,63.19
2019-06-08T04:35:31.491Z,62.27
2019-06-08T04:38:02.673Z,64.06
2019-06-08T04:40:33.874Z,61.69
2019-06-08T04:43:05.447Z,61.78
2019-06-08T04:45:38.614Z,62.02
2019-06-08T04:48:10.009Z,61.33
2019-06-08T04:50:42.917Z,60.54
2019-06-08T04:53:15.767Z,60.27
2019-06-08T04:55:47.275Z,59.42
2019-06-08T04:58:19.950Z,61.02
2019-06-08T05:00:51.215Z,59.02
2019-06-08T05:03:22.381Z,59.79
2019-06-08T05:05:53.687Z,58.66
2019-06-08T05:08:24.846Z,57.70
2019-06-08T05:10:56.051Z,57.53
2019-06-08T05:13:27.210Z,57.52
2019-06-08T05:15:58.416Z,57.38
2019-06-08T05:18:29.516Z,57.75
2019-06-08T05:21:00.745Z,56.79
2019-06-08T05:23:31.992Z,57.43
2019-06-08T05:26:03.197Z,57.48
2019-06-08T05:28:34.379Z,57.27
2019-06-08T05:31:05.597Z,58.10
2019-06-08T05:33:36.814Z,59.24
2019-06-08T05:36:08.019Z,60.53
2019-06-08T05:38:39.500Z,57.87
2019-06-08T05:41:10.726Z,57.32
2019-06-08T05:43:41.868Z,56.31
2019-06-08T05:46:12.993Z,55.14
2019-06-08T05:48:44.139Z,55.50
2019-06-08T05:51:15.331Z,53.46
2019-06-08T05:53:47.910Z,53.38
2019-06-08T05:56:19.185Z,53.64
2019-06-08T05:58:50.573Z,52.67
2019-06-08T06:01:21.748Z,51.56
2019-06-08T06:03:52.876Z,52.04
2019-06-08T06:06:24.180Z,51.89
2019-06-08T06:08:55.347Z,51.53
2019-06-08T06:11:26.569Z,51.19
2019-06-08T06:13:57.805Z,51.54
2019-06-08T06:16:29.019Z,53.42
2019-06-08T06:19:00.221Z,50.86
2019-06-08T06:21:31.430Z,49.81
2019-06-08T06:24:02.599Z,49.25
2019-06-08T06:26:33.839Z,49.74
2019-06-08T06:29:05.055Z,49.35
2019-06-08T06:31:36.262Z,48.49
2019-06-08T06:34:07.449Z,49.78
2019-06-08T06:36:38.648Z,48.42
2019-06-08T06:39:09.837Z,48.15
2019-06-08T06:41:41.874Z,45.97
2019-06-08T06:44:13.117Z,46.91
2019-06-08T06:46:44.321Z,48.30
2019-06-08T06:49:15.536Z,45.11
2019-06-08T06:51:46.827Z,45.13
2019-06-08T06:54:18.929Z,46.52
2019-06-08T06:56:50.148Z,43.47
2019-06-08T06:59:21.295Z,42.37
2019-06-08T07:01:57.264Z,41.53
2019-06-08T07:04:25.914Z,42.43
2019-06-08T07:06:57.211Z,42.56
2019-06-08T07:09:28.422Z,40.17
2019-06-08T07:11:59.649Z,42.34
2019-06-08T07:14:30.827Z,43.14
2019-06-08T07:17:02.037Z,40.92
2019-06-08T07:19:33.189Z,40.85
2019-06-08T07:22:04.428Z,39.97
2019-06-08T07:24:35.530Z,41.08
2019-06-08T07:27:07.606Z,40.13
2019-06-08T07:29:38.794Z,42.27
2019-06-08T07:32:10.017Z,40.02
2019-06-08T07:34:41.340Z,40.58
2019-06-08T07:37:12.605Z,39.87
2019-06-08T07:39:43.732Z,40.51
2019-06-08T07:42:14.930Z,39.87
2019-06-08T07:44:46.851Z,39.37
2019-06-08T07:47:18.052Z,39.63
2019-06-08T07:49:49.378Z,41.73
2019-06-08T07:52:20.623Z,39.61
2019-06-08T07:54:53.088Z,39.55
2019-06-08T07:57:24.671Z,37.42
2019-06-08T07:59:56.396Z,40.21
2019-06-08T08:02:27.729Z,37.46
2019-06-08T08:04:58.942Z,36.94
2019-06-08T08:07:30.178Z,36.41
2019-06-08T08:10:01.246Z,37.54
2019-06-08T08:12:32.526Z,35.59
2019-06-08T08:15:05.476Z,36.85
2019-06-08T08:17:39.184Z,36.12
2019-06-08T08:20:11.856Z,35.91
2019-06-08T08:22:43.089Z,36.47
2019-06-08T08:25:14.335Z,35.65
2019-06-08T08:27:47.827Z,36.29
2019-06-08T08:30:20.229Z,35.20
2019-06-08T08:32:53.287Z,34.58
2019-06-08T08:35:24.642Z,34.48
2019-06-08T08:38:00.474Z,34.08
2019-06-08T08:40:28.730Z,36.69
2019-06-08T08:43:01.594Z,33.95
2019-06-08T08:45:32.904Z,33.60
2019-06-08T08:48:20.717Z,33.78
2019-06-08T08:50:38.313Z,33.41
2019-06-08T08:53:09.611Z,34.94
2019-06-08T08:55:41.682Z,32.88
2019-06-08T08:58:12.895Z,35.12
2019-06-08T09:00:44.083Z,36.24
2019-06-08T09:03:28.492Z,36.02
2019-06-08T09:05:48.419Z,32.31
2019-06-08T09:08:23.165Z,33.89
2019-06-08T09:10:53.403Z,32.97
2019-06-08T09:13:24.779Z,33.99
2019-06-08T09:15:55.927Z,33.14
2019-06-08T09:18:28.718Z,32.99
2019-06-08T09:21:02.327Z,32.96
2019-06-08T09:23:32.792Z,33.50
2019-06-08T09:26:09.236Z,31.57
2019-06-08T09:28:38.844Z,31.57
2019-06-08T09:31:12.815Z,32.94
2019-06-08T09:33:42.715Z,33.62
2019-06-08T09:36:13.869Z,33.00
2019-06-08T09:38:47.782Z,33.49
2019-06-08T09:41:18.670Z,31.56
2019-06-08T09:43:49.891Z,31.76
2019-06-08T09:46:21.061Z,31.39
2019-06-08T09:48:54.020Z,33.56
2019-06-08T09:51:25.151Z,32.69
2019-06-08T09:54:00.401Z,33.53
2019-06-08T09:56:30.108Z,32.21
2019-06-08T09:59:04.100Z,33.37
2019-06-08T10:01:34.189Z,30.68
2019-06-08T10:04:08.541Z,33.08
2019-06-08T10:06:40.475Z,33.85
2019-06-08T10:09:11.418Z,31.40
2019-06-08T10:11:42.517Z,31.34
2019-06-08T10:14:13.740Z,31.10
2019-06-08T10:16:47.677Z,31.75
2019-06-08T10:19:18.643Z,31.02
2019-06-08T10:21:49.982Z,31.12
2019-06-08T10:24:21.177Z,31.10
2019-06-08T10:26:52.344Z,30.67
2019-06-08T10:29:23.472Z,31.67
2019-06-08T10:31:55.208Z,30.96
2019-06-08T10:34:29.689Z,32.69
2019-06-08T10:37:06.444Z,31.38
2019-06-08T10:39:33.808Z,31.24
2019-06-08T10:42:07.431Z,30.58
2019-06-08T10:44:38.296Z,30.84
2019-06-08T10:47:11.810Z,30.01
2019-06-08T10:49:42.435Z,29.63
2019-06-08T10:52:13.608Z,29.78
2019-06-08T10:54:44.836Z,29.61
2019-06-08T10:57:18.228Z,30.53
2019-06-08T10:59:49.658Z,31.59
2019-06-08T11:02:20.830Z,33.10
2019-06-08T11:04:52.097Z,31.26
2019-06-08T11:07:23.257Z,32.93
2019-06-08T11:09:54.538Z,31.54
2019-06-08T11:12:28.159Z,31.74
2019-06-08T11:14:59.937Z,32.50
2019-06-08T11:17:31.480Z,32.08
2019-06-08T11:20:04.384Z,32.81
2019-06-08T11:22:35.575Z,33.87
2019-06-08T11:25:15.456Z,33.06
2019-06-08T11:27:41.177Z,34.75
2019-06-08T11:30:20.380Z,33.29
2019-06-08T11:32:47.925Z,32.97
2019-06-08T11:35:18.664Z,31.45
2019-06-08T11:37:49.773Z,31.12
2019-06-08T11:40:21.078Z,30.54
2019-06-08T11:42:52.222Z,30.57
2019-06-08T11:45:23.535Z,28.68
2019-06-08T11:47:54.692Z,30.09
2019-06-08T11:50:34.533Z,30.79
2019-06-08T11:53:07.821Z,27.47
2019-06-08T11:55:38.778Z,28.42
2019-06-08T11:58:12.422Z,28.36
2019-06-08T12:01:00.737Z,28.31
2019-06-08T12:03:30.794Z,27.15
2019-06-08T12:06:02.238Z,27.39
2019-06-08T12:08:33.395Z,27.86
2019-06-08T12:11:06.151Z,26.77
2019-06-08T12:13:37.651Z,26.86
2019-06-08T12:16:14.868Z,29.05
2019-06-08T12:18:41.732Z,27.17
2019-06-08T12:21:14.252Z,27.21
2019-06-08T12:23:45.696Z,29.91
2019-06-08T12:26:16.891Z,26.51
2019-06-08T12:28:48.657Z,30.17
2019-06-08T12:31:22.490Z,28.56
2019-06-08T12:33:52.866Z,26.77
2019-06-08T12:36:24.071Z,28.33
2019-06-08T12:38:55.233Z,28.67
2019-06-08T12:41:28.912Z,27.67
2019-06-08T12:43:59.330Z,27.66
2019-06-08T12:46:30.544Z,29.47
2019-06-08T12:49:01.713Z,27.34
2019-06-08T12:51:32.933Z,27.14
2019-06-08T12:54:04.380Z,27.76
2019-06-08T12:56:37.680Z,27.86
2019-06-08T12:59:12.985Z,29.10
2019-06-08T13:01:41.561Z,26.82
2019-06-08T13:04:13.780Z,26.83
2019-06-08T13:06:45.038Z,27.01
2019-06-08T13:09:18.906Z,28.86
2019-06-08T13:11:50.701Z,27.76
2019-06-08T13:14:22.024Z,27.72
2019-06-08T13:16:53.318Z,26.60
2019-06-08T13:19:24.484Z,27.89
2019-06-08T13:21:55.714Z,27.75
2019-06-08T13:24:28.506Z,28.53
2019-06-08T13:26:59.825Z,29.27
2019-06-08T13:29:31.010Z,27.59
2019-06-08T13:32:02.264Z,27.82
2019-06-08T13:34:33.398Z,28.83
2019-06-08T13:37:04.628Z,28.52
2019-06-08T13:39:35.879Z,28.28
2019-06-08T13:42:07.741Z,28.60
2019-06-08T13:44:39.155Z,28.40
2019-06-08T13:47:11.161Z,28.27
2019-06-08T13:49:43.172Z,27.81
2019-06-08T13:52:15.664Z,29.74
2019-06-08T13:54:48.013Z,29.71
2019-06-08T13:57:21.896Z,28.11
2019-06-08T13:59:52.182Z,29.41
2019-06-08T14:02:28.540Z,30.03
2019-06-08T14:04:58.967Z,29.90
2019-06-08T14:07:34.357Z,29.30
2019-06-08T14:10:02.687Z,31.04
2019-06-08T14:12:34.016Z,30.32
2019-06-08T14:15:08.620Z,30.52
2019-06-08T14:17:39.394Z,32.06
2019-06-08T14:20:10.540Z,33.02
2019-06-08T14:22:41.747Z,34.24
2019-06-08T14:25:12.910Z,34.88
2019-06-08T14:27:44.134Z,34.81
2019-06-08T14:30:15.298Z,34.31
2019-06-08T14:32:47.885Z,32.95
2019-06-08T14:35:22.325Z,33.42
2019-06-08T14:37:52.047Z,33.04
2019-06-08T14:40:23.450Z,33.21
2019-06-08T14:42:54.663Z,33.72
2019-06-08T14:45:28.888Z,34.41
2019-06-08T14:47:58.873Z,35.74
2019-06-08T14:50:31.257Z,36.27
2019-06-08T14:53:02.688Z,36.62
2019-06-08T14:55:34.338Z,37.53
2019-06-08T14:58:05.578Z,37.60
2019-06-08T15:00:38.032Z,37.29
2019-06-08T15:03:09.620Z,37.40
2019-06-08T15:05:40.797Z,39.14
2019-06-08T15:08:11.995Z,38.06
2019-06-08T15:10:43.161Z,38.51
2019-06-08T15:13:14.484Z,39.03
2019-06-08T15:15:45.671Z,38.57
2019-06-08T15:18:18.584Z,39.83
2019-06-08T15:20:49.768Z,38.48
2019-06-08T15:23:22.863Z,38.88
2019-06-08T15:25:53.848Z,39.62
2019-06-08T15:28:25.081Z,40.31
2019-06-08T15:30:59.807Z,41.26
2019-06-08T15:33:32.073Z,41.87
2019-06-08T15:36:02.063Z,42.67
2019-06-08T15:38:33.551Z,42.91
2019-06-08T15:41:04.729Z,43.49
2019-06-08T15:43:37.652Z,43.41
2019-06-08T15:46:08.858Z,43.33
2019-06-08T15:48:40.114Z,43.76
2019-06-08T15:51:11.281Z,43.95
2019-06-08T15:53:42.515Z,43.92
2019-06-08T15:56:13.598Z,44.53
2019-06-08T15:58:44.827Z,44.41
2019-06-08T16:01:16.008Z,44.66
2019-06-08T16:03:47.228Z,44.94
2019-06-08T16:06:18.481Z,45.59
2019-06-08T16:08:49.682Z,46.00
2019-06-08T16:11:20.834Z,46.10
2019-06-08T16:13:52.135Z,47.29
2019-06-08T16:16:23.312Z,48.16
2019-06-08T16:18:54.458Z,48.61
2019-06-08T16:21:25.641Z,50.00
2019-06-08T16:23:56.872Z,49.83
2019-06-08T16:26:28.014Z,50.37
2019-06-08T16:28:59.286Z,49.94
2019-06-08T16:31:31.073Z,50.64
2019-06-08T16:34:02.359Z,50.31
2019-06-08T16:36:33.549Z,49.80
2019-06-08T16:39:07.469Z,50.05
2019-06-08T16:41:38.604Z,50.34
2019-06-08T16:44:09.832Z,50.03
2019-06-08T16:46:40.993Z,50.39
2019-06-08T16:49:12.221Z,51.55
2019-06-08T16:51:43.375Z,52.22
2019-06-08T16:54:14.579Z,52.70
2019-06-08T16:56:45.765Z,54.79
2019-06-08T16:59:16.981Z,54.58
2019-06-08T17:01:48.147Z,54.33
2019-06-08T17:04:19.319Z,54.51
2019-06-08T17:06:50.510Z,54.27
2019-06-08T17:09:21.744Z,54.18
2019-06-08T17:11:53.038Z,54.24
2019-06-08T17:14:25.275Z,54.97
2019-06-08T17:16:56.604Z,56.22
2019-06-08T17:19:27.870Z,55.27
2019-06-08T17:21:59.037Z,55.16
2019-06-08T17:24:30.391Z,53.77
2019-06-08T17:27:01.522Z,52.08
2019-06-08T17:29:32.846Z,51.20
2019-06-08T17:32:04.034Z,50.53
2019-06-08T17:34:36.526Z,49.50
2019-06-08T17:37:07.860Z,48.12
2019-06-08T17:39:40.133Z,48.06
2019-06-08T17:42:11.432Z,48.01
2019-06-08T17:44:42.758Z,47.22
2019-06-08T17:47:14.076Z,47.72
2019-06-08T17:49:45.332Z,48.34
2019-06-08T17:52:16.507Z,47.66
2019-06-08T17:54:47.755Z,48.37
2019-06-08T17:57:18.918Z,48.73
2019-06-08T17:59:50.077Z,49.38
2019-06-08T18:02:27.983Z,49.83
2019-06-08T18:04:54.166Z,49.10
2019-06-08T18:07:27.622Z,49.05
2019-06-08T18:09:58.242Z,48.99
2019-06-08T18:12:29.411Z,49.16
2019-06-08T18:15:00.731Z,50.07
2019-06-08T18:17:32.223Z,49.91
2019-06-08T18:20:04.443Z,49.28
2019-06-08T18:22:39.083Z,49.13
2019-06-08T18:25:08.645Z,49.64
2019-06-08T18:27:42.389Z,50.17
2019-06-08T18:30:15.436Z,50.20
2019-06-08T18:32:48.524Z,51.42
2019-06-08T18:35:20.407Z,50.86
2019-06-08T18:37:52.987Z,51.58
2019-06-08T18:40:24.227Z,52.31
2019-06-08T18:42:57.677Z,52.73
2019-06-08T18:45:29.802Z,52.58
2019-06-08T18:48:00.993Z,53.04
2019-06-08T18:50:32.525Z,52.51
2019-06-08T18:53:03.688Z,53.27
2019-06-08T18:55:36.307Z,52.67
2019-06-08T18:58:17.617Z,55.20
2019-06-08T19:00:43.398Z,54.21
2019-06-08T19:03:14.491Z,55.99
2019-06-08T19:05:49.422Z,55.26
2019-06-08T19:08:19.478Z,54.06
2019-06-08T19:10:50.695Z,54.64
2019-06-08T19:13:21.858Z,54.36
2019-06-08T19:15:53.262Z,55.60
2019-06-08T19:18:24.552Z,54.64
2019-06-08T19:20:57.653Z,53.77
2019-06-08T19:23:28.624Z,54.95
2019-06-08T19:26:00.480Z,54.21
2019-06-08T19:28:36.367Z,55.26
2019-06-08T19:31:04.777Z,53.74
2019-06-08T19:33:35.955Z,54.50
2019-06-08T19:36:07.753Z,53.34
2019-06-08T19:38:40.045Z,53.22
2019-06-08T19:41:11.950Z,53.54
2019-06-08T19:43:43.622Z,54.14
2019-06-08T19:46:18.077Z,53.79
2019-06-08T19:48:54.572Z,54.84
2019-06-08T19:51:21.800Z,56.31
2019-06-08T19:53:54.961Z,58.04
2019-06-08T19:56:28.232Z,58.38
2019-06-08T19:59:03.984Z,59.69
2019-06-08T20:01:31.804Z,59.93
2019-06-08T20:04:07.270Z,60.46
2019-06-08T20:06:38.084Z,61.42
2019-06-08T20:09:09.670Z,61.90
2019-06-08T20:11:45.663Z,61.67
2019-06-08T20:14:13.845Z,61.63
2019-06-08T20:16:48.099Z,62.10
2019-06-08T20:19:18.332Z,62.14
2019-06-08T20:21:51.469Z,62.61
2019-06-08T20:24:22.409Z,61.58
2019-06-08T20:26:54.817Z,59.82
2019-06-08T20:29:28.332Z,60.26
2019-06-08T20:31:59.001Z,60.49
2019-06-08T20:34:30.178Z,60.11
2019-06-08T20:37:02.111Z,59.47
2019-06-08T20:39:33.315Z,60.63
2019-06-08T20:42:04.519Z,61.88
2019-06-08T20:44:37.667Z,60.64
2019-06-08T20:47:08.612Z,59.85
2019-06-08T20:49:39.734Z,58.33
2019-06-08T20:52:10.980Z,58.64
2019-06-08T20:54:42.754Z,59.50
2019-06-08T20:57:14.050Z,58.96
2019-06-08T20:59:45.669Z,59.40
2019-06-08T21:02:17.818Z,60.29
2019-06-08T21:04:53.125Z,59.09
2019-06-08T21:07:23.661Z,60.92
2019-06-08T21:09:57.490Z,60.13
2019-06-08T21:12:28.372Z,62.33
2019-06-08T21:14:59.631Z,63.78
2019-06-08T21:17:30.911Z,62.48
2019-06-08T21:20:02.125Z,61.48
2019-06-08T21:22:33.615Z,63.59
2019-06-08T21:25:08.716Z,64.77
2019-06-08T21:27:39.198Z,63.23
2019-06-08T21:30:20.592Z,61.81
2019-06-08T21:32:43.700Z,61.81
2019-06-08T21:35:14.924Z,59.52
2019-06-08T21:37:50.681Z,59.25
2019-06-08T21:40:19.099Z,59.22
2019-06-08T21:42:52.146Z,59.41
2019-06-08T21:45:23.153Z,58.97
2019-06-08T21:47:54.520Z,59.80
2019-06-08T21:50:27.553Z,60.54
2019-06-08T21:53:00.461Z,59.57
2019-06-08T21:55:31.795Z,59.97
2019-06-08T21:58:03.016Z,61.35
2019-06-08T22:00:40.578Z,63.55
2019-06-08T22:03:08.106Z,65.88
2019-06-08T22:05:39.485Z,71.44
2019-06-08T22:08:10.676Z,71.22
2019-06-08T22:10:41.925Z,72.17
2019-06-08T22:13:13.186Z,75.81
2019-06-08T22:15:44.610Z,76.87
2019-06-08T22:18:18.311Z,82.33
2019-06-08T22:20:48.865Z,83.07
2019-06-08T22:23:20.088Z,84.53
2019-06-08T22:25:52.443Z,85.62
2019-06-08T22:28:24.154Z,88.02
2019-06-08T22:30:57.775Z,85.18
2019-06-08T22:33:28.213Z,86.41
2019-06-08T22:35:59.341Z,85.50
2019-06-08T22:38:30.533Z,84.18
2019-06-08T22:41:02.349Z,85.52
2019-06-08T22:43:37.256Z,85.27
2019-06-08T22:46:08.355Z,86.29
2019-06-08T22:48:39.854Z,87.74
2019-06-08T22:51:11.067Z,86.16
2019-06-08T22:53:42.268Z,89.12
2019-06-08T22:56:13.432Z,86.50
2019-06-08T22:58:44.550Z,85.37
2019-06-08T23:01:18.184Z,86.41
2019-06-08T23:03:48.596Z,84.99
2019-06-08T23:06:20.632Z,84.34
2019-06-08T23:08:51.835Z,84.40
2019-06-08T23:11:23.048Z,87.24
2019-06-08T23:13:54.353Z,90.20
2019-06-08T23:16:27.266Z,89.14
2019-06-08T23:19:00.256Z,90.25
2019-06-08T23:21:31.435Z,90.38
2019-06-08T23:24:04.043Z,90.14
2019-06-08T23:26:37.164Z,89.76
2019-06-08T23:29:09.637Z,91.67
2019-06-08T23:31:40.955Z,92.18
2019-06-08T23:34:12.196Z,92.37
2019-06-08T23:36:57.531Z,92.14
2019-06-08T23:39:17.975Z,93.33
2019-06-08T23:41:49.248Z,93.40
2019-06-08T23:44:20.491Z,93.18
2019-06-08T23:46:51.657Z,93.09
2019-06-08T23:49:22.894Z,90.13
2019-06-08T23:51:54.034Z,90.47
2019-06-08T23:54:27.866Z,89.94
2019-06-08T23:56:58.537Z,91.05
2019-06-08T23:59:29.954Z,91.55
